Time;durP1;ratioP1;P1;durP2;ratioP2;P2;SDS_P1;SDS_P2;PMS_P1;PMS_P2;Temp;Humidity;BMP_temperature;BMP_pressure;BME280_temperature;BME280_humidity;BME280_pressure;Samples;Min_cycle;Max_cycle;Signal;HPM_P1;HPM_P2
2021/08/01 00:01:20;;;;;;;;;;;;;;;15.66;100.00;100041.59;5112179;28;20424;-65
2021/08/01 00:03:46;;;;;;;;;;;;;;;15.61;100.00;100046.78;5112732;28;19930;-70
2021/08/01 00:06:14;;;;;;;;;;;;;;;15.55;100.00;100048.28;5112363;28;19977;-70
2021/08/01 00:08:40;;;;;;;;;;;;;;;15.58;100.00;100050.69;5112080;28;19927;-71
2021/08/01 00:11:06;;;;;;;;;;;;;;;15.56;100.00;100041.81;5112441;28;19971;-71
2021/08/01 00:13:33;;;;;;;;;;;;;;;15.55;100.00;100043.69;5112190;28;19961;-71
2021/08/01 00:16:01;;;;;;;;;;;;;;;15.52;100.00;100044.03;5112235;28;20002;-65
2021/08/01 00:18:27;;;;;;;;;;;;;;;15.46;100.00;100055.69;5111799;28;20352;-65
2021/08/01 00:20:53;;;;;;;;;;;;;;;15.45;100.00;100053.13;5112224;28;20395;-65
2021/08/01 00:23:21;;;;;;;;;;;;;;;15.45;100.00;100058.59;5111382;28;19962;-66
2021/08/01 00:25:47;;;;;;;;;;;;;;;15.40;100.00;100057.19;5112135;28;19978;-71
2021/08/01 00:28:14;;;;;;;;;;;;;;;15.36;100.00;100063.19;5112058;28;19927;-71
2021/08/01 00:30:40;;;;;;;;;;;;;;;15.32;100.00;100053.63;5111928;28;19985;-71
2021/08/01 00:33:06;;;;;;;;;;;;;;;15.28;100.00;100049.53;5110900;28;19924;-72
2021/08/01 00:35:33;;;;;;;;;;;;;;;15.24;100.00;100035.34;5111725;28;19923;-71
2021/08/01 00:38:00;;;;;;;;;;;;;;;15.23;100.00;100039.97;5110840;28;19924;-71
2021/08/01 00:40:28;;;;;;;;;;;;;;;15.24;100.00;100035.34;5111890;28;19976;-71
2021/08/01 00:42:54;;;;;;;;;;;;;;;15.23;100.00;100039.97;5111920;28;19980;-71
2021/08/01 00:45:20;;;;;;;;;;;;;;;15.20;100.00;100045.75;5112146;28;19937;-70
2021/08/01 00:47:47;;;;;;;;;;;;;;;15.20;100.00;100051.22;5111884;28;19955;-69
2021/08/01 00:50:14;;;;;;;;;;;;;;;15.17;100.00;100056.22;5111124;28;19924;-69
2021/08/01 00:52:44;;;;;;;;;;;;;;;15.14;100.00;100057.41;5110793;28;19928;-65
2021/08/01 00:55:11;;;;;;;;;;;;;;;15.05;100.00;100048.34;5110700;28;20364;-65
2021/08/01 00:57:40;;;;;;;;;;;;;;;15.02;100.00;100051.41;5111844;28;19928;-65
2021/08/01 01:00:13;;;;;;;;;;;;;;;14.97;100.00;100050.22;5111867;28;20032;-65
2021/08/01 01:02:42;;;;;;;;;;;;;;;14.97;100.00;100053.81;5110583;28;20109;-65
2021/08/01 01:05:14;;;;;;;;;;;;;;;14.93;100.00;100046.13;5110488;28;20018;-65
2021/08/01 01:07:46;;;;;;;;;;;;;;;14.87;100.00;100051.25;5111623;28;19931;-65
2021/08/01 01:10:19;;;;;;;;;;;;;;;14.82;100.00;100058.25;5110492;28;20022;-65
2021/08/01 01:12:51;;;;;;;;;;;;;;;14.78;100.00;100048.66;5113971;28;19928;-65
2021/08/01 01:15:21;;;;;;;;;;;;;;;14.75;100.00;100047.09;5114605;28;19923;-65
2021/08/01 01:17:49;;;;;;;;;;;;;;;14.72;100.00;100039.25;5114052;28;20480;-65
2021/08/01 01:20:32;;;;;;;;;;;;;;;14.65;100.00;100035.50;5114551;28;19946;-69
2021/08/01 01:23:11;;;;;;;;;;;;;;;14.63;100.00;100042.97;5115462;28;19931;-65
2021/08/01 01:26:08;;;;;;;;;;;;;;;14.66;100.00;100038.06;5101488;28;19924;-65
2021/08/01 01:28:39;;;;;;;;;;;;;;;14.65;100.00;100046.44;5115548;28;19940;-65
2021/08/01 01:31:10;;;;;;;;;;;;;;;14.66;100.00;100040.78;5115560;28;20306;-65
2021/08/01 01:33:38;;;;;;;;;;;;;;;14.65;100.00;100054.63;5115293;28;19924;-65
2021/08/01 01:36:07;;;;;;;;;;;;;;;14.59;100.00;100047.06;5115492;28;19923;-65
2021/08/01 01:38:36;;;;;;;;;;;;;;;14.55;100.00;100052.84;5115022;28;19931;-66
2021/08/01 01:41:25;;;;;;;;;;;;;;;14.52;100.00;100052.31;5114061;28;19963;-65
2021/08/01 01:44:04;;;;;;;;;;;;;;;14.49;100.00;100056.25;5115034;28;19927;-65
2021/08/01 01:46:32;;;;;;;;;;;;;;;14.44;100.00;100064.06;5113765;28;19928;-65
2021/08/01 01:48:59;;;;;;;;;;;;;;;14.40;100.00;100068.16;5113594;28;20423;-65
2021/08/01 01:51:26;;;;;;;;;;;;;;;14.35;100.00;100063.22;5114943;28;20005;-65
2021/08/01 01:53:55;;;;;;;;;;;;;;;14.35;100.00;100062.34;5114914;28;19966;-65
2021/08/01 01:56:22;;;;;;;;;;;;;;;14.36;100.00;100069.50;5113552;28;19931;-71
2021/08/01 01:58:49;;;;;;;;;;;;;;;14.33;100.00;100062.50;5113633;28;19924;-71
2021/08/01 02:01:17;;;;;;;;;;;;;;;14.29;100.00;100063.88;5096467;28;20395;-71
2021/08/01 02:03:45;;;;;;;;;;;;;;;14.21;100.00;100063.84;5113298;28;20030;-70
2021/08/01 02:06:13;;;;;;;;;;;;;;;14.14;100.00;100062.78;5114821;28;20399;-71
2021/08/01 02:09:04;;;;;;;;;;;;;;;14.05;100.00;100067.34;5114555;28;19924;-65
2021/08/01 02:11:55;;;;;;;;;;;;;;;13.96;100.00;100066.44;5113559;28;20027;-65
2021/08/01 02:14:41;;;;;;;;;;;;;;;13.90;100.00;100061.66;5113314;28;19924;-65
2021/08/01 02:17:11;;;;;;;;;;;;;;;13.87;100.00;100049.19;5114342;28;20018;-65
2021/08/01 02:19:39;;;;;;;;;;;;;;;13.86;100.00;100055.66;5114227;28;19927;-65
2021/08/01 02:22:08;;;;;;;;;;;;;;;13.89;100.00;100054.47;5113318;28;19924;-65
2021/08/01 02:24:35;;;;;;;;;;;;;;;13.84;100.00;100056.84;5112823;27;19992;-65
2021/08/01 02:27:03;;;;;;;;;;;;;;;13.80;100.00;100058.19;5113236;28;20295;-65
2021/08/01 02:29:31;;;;;;;;;;;;;;;13.77;100.00;100053.06;5113118;28;19974;-65
2021/08/01 02:31:58;;;;;;;;;;;;;;;13.76;100.00;100054.91;5114154;28;19939;-65
2021/08/01 02:34:31;;;;;;;;;;;;;;;13.78;100.00;100052.03;5114162;28;19930;-71
2021/08/01 02:36:58;;;;;;;;;;;;;;;13.74;100.00;100062.41;5112796;28;19923;-70
2021/08/01 02:39:24;;;;;;;;;;;;;;;13.76;100.00;100059.53;5112962;28;19924;-65
2021/08/01 02:41:53;;;;;;;;;;;;;;;13.76;100.00;100067.72;5113781;27;19988;-70
2021/08/01 02:44:27;;;;;;;;;;;;;;;13.72;100.00;100067.16;5112941;28;19973;-70
2021/08/01 02:46:54;;;;;;;;;;;;;;;13.69;100.00;100071.06;5112403;28;20014;-70
2021/08/01 02:49:23;;;;;;;;;;;;;;;13.68;100.00;100065.78;5114494;28;20040;-70
2021/08/01 02:51:52;;;;;;;;;;;;;;;13.67;100.00;100072.25;5112798;28;19924;-66
2021/08/01 02:54:20;;;;;;;;;;;;;;;13.65;100.00;100066.09;5113759;28;19923;-65
2021/08/01 02:56:48;;;;;;;;;;;;;;;13.59;100.00;100067.63;5112383;28;20373;-65
2021/08/01 02:59:17;;;;;;;;;;;;;;;13.50;100.00;100074.88;5112607;28;19955;-71
2021/08/01 03:01:45;;;;;;;;;;;;;;;13.55;100.00;100077.13;5111898;28;19932;-71
2021/08/01 03:04:13;;;;;;;;;;;;;;;13.57;100.00;100075.09;5113468;28;19931;-71
2021/08/01 03:06:42;;;;;;;;;;;;;;;13.58;100.00;100084.13;5112321;28;19927;-70
2021/08/01 03:09:10;;;;;;;;;;;;;;;13.63;100.00;100081.75;5113681;28;19951;-65
2021/08/01 03:11:36;;;;;;;;;;;;;;;13.63;100.00;100092.66;5113439;28;19923;-69
2021/08/01 03:14:06;;;;;;;;;;;;;;;13.62;100.00;100094.56;5112747;28;19924;-66
2021/08/01 03:16:34;;;;;;;;;;;;;;;13.59;100.00;100094.00;5113067;28;19939;-65
2021/08/01 03:19:02;;;;;;;;;;;;;;;13.55;100.00;100082.59;5112069;28;19924;-65
2021/08/01 03:21:30;;;;;;;;;;;;;;;13.51;100.00;100090.22;5111673;28;19975;-69
2021/08/01 03:24:06;;;;;;;;;;;;;;;13.55;100.00;100088.03;5112397;28;19967;-70
2021/08/01 03:26:53;;;;;;;;;;;;;;;13.55;100.00;100102.50;5111755;28;19959;-72
2021/08/01 03:29:20;;;;;;;;;;;;;;;13.63;100.00;100096.28;5112435;28;20023;-70
2021/08/01 03:31:48;;;;;;;;;;;;;;;13.67;100.00;100103.13;5111979;28;19928;-71
2021/08/01 03:34:14;;;;;;;;;;;;;;;13.72;100.00;100105.34;5112862;28;20019;-71
2021/08/01 03:36:41;;;;;;;;;;;;;;;13.74;100.00;100103.31;5111492;28;19992;-71
2021/08/01 03:39:10;;;;;;;;;;;;;;;13.78;100.00;100095.69;5113022;28;19963;-66
2021/08/01 03:41:36;;;;;;;;;;;;;;;13.84;100.00;100082.25;5112584;28;19971;-66
2021/08/01 03:44:04;;;;;;;;;;;;;;;13.86;100.00;100076.63;5111935;28;19927;-65
2021/08/01 03:46:30;;;;;;;;;;;;;;;13.87;100.00;100079.19;5111475;28;19928;-65
2021/08/01 03:48:58;;;;;;;;;;;;;;;13.93;100.00;100080.41;5112752;28;19923;-69
2021/08/01 03:51:24;;;;;;;;;;;;;;;13.95;100.00;100082.97;5111708;28;19924;-71
2021/08/01 03:53:50;;;;;;;;;;;;;;;13.98;100.00;100090.84;5111470;28;20311;-70
2021/08/01 03:56:17;;;;;;;;;;;;;;;14.02;100.00;100090.34;5112460;28;20386;-65
2021/08/01 03:58:43;;;;;;;;;;;;;;;14.04;100.00;100084.72;5112387;28;19981;-65
2021/08/01 04:01:09;;;;;;;;;;;;;;;14.11;100.00;100085.81;5112336;28;19923;-66
2021/08/01 04:03:36;;;;;;;;;;;;;;;14.11;100.00;100080.34;5112765;28;19924;-66
2021/08/01 04:06:06;;;;;;;;;;;;;;;14.14;100.00;100074.56;5112549;28;19924;-66
2021/08/01 04:08:33;;;;;;;;;;;;;;;14.20;100.00;100062.13;5110887;28;19924;-66
2021/08/01 04:11:03;;;;;;;;;;;;;;;14.23;100.00;100070.84;5112420;28;20026;-66
2021/08/01 04:13:29;;;;;;;;;;;;;;;14.28;100.00;100074.94;5112214;28;20448;-66
2021/08/01 04:15:55;;;;;;;;;;;;;;;14.33;100.00;100073.44;5112130;28;19924;-66
2021/08/01 04:18:21;;;;;;;;;;;;;;;14.39;100.00;100089.16;5111970;28;20375;-67
2021/08/01 04:20:48;;;;;;;;;;;;;;;14.39;100.00;100086.44;5112200;28;19980;-66
2021/08/01 04:23:15;;;;;;;;;;;;;;;14.43;100.00;100086.09;5112354;28;19959;-66
2021/08/01 04:25:42;;;;;;;;;;;;;;;14.46;100.00;100088.50;5110620;28;20371;-66
2021/08/01 04:28:08;;;;;;;;;;;;;;;14.46;100.00;100088.50;5112090;28;20443;-70
2021/08/01 04:30:34;;;;;;;;;;;;;;;14.48;100.00;100089.19;5112092;28;19935;-70
2021/08/01 04:33:00;;;;;;;;;;;;;;;14.50;100.00;100084.44;5112312;28;19928;-70
2021/08/01 04:35:27;;;;;;;;;;;;;;;14.52;100.00;100080.50;5111958;28;19924;-65
2021/08/01 04:37:53;;;;;;;;;;;;;;;14.53;100.00;100081.34;5111985;28;19932;-65
2021/08/01 04:40:21;;;;;;;;;;;;;;;14.57;100.00;100085.47;5111999;28;19928;-64
2021/08/01 04:42:47;;;;;;;;;;;;;;;14.58;100.00;100081.72;5112022;28;20436;-70
2021/08/01 04:45:13;;;;;;;;;;;;;;;14.62;100.00;100084.94;5112191;28;19924;-70
2021/08/01 04:47:40;;;;;;;;;;;;;;;14.62;100.00;100076.75;5113495;28;19977;-70
2021/08/01 04:50:06;;;;;;;;;;;;;;;14.63;100.00;100075.72;5116500;28;19938;-72
2021/08/01 04:52:33;;;;;;;;;;;;;;;14.65;100.00;100076.47;5116082;28;19963;-69
2021/08/01 04:54:59;;;;;;;;;;;;;;;14.69;100.00;100075.13;5116244;28;19962;-69
2021/08/01 04:57:27;;;;;;;;;;;;;;;14.73;100.00;100073.75;5115852;28;20295;-67
2021/08/01 04:59:53;;;;;;;;;;;;;;;14.81;100.00;100068.28;5115836;28;19928;-66
2021/08/01 05:02:21;;;;;;;;;;;;;;;14.88;100.00;100060.28;5115930;28;19977;-67
2021/08/01 05:04:47;;;;;;;;;;;;;;;14.96;100.00;100067.63;5115805;28;19979;-70
2021/08/01 05:07:13;;;;;;;;;;;;;;;15.00;100.00;100069.84;5115864;28;20029;-70
2021/08/01 05:09:40;;;;;;;;;;;;;;;15.07;100.00;100068.16;5115558;28;19977;-70
2021/08/01 05:12:06;;;;;;;;;;;;;;;15.11;100.00;100065.91;5115863;28;19924;-70
2021/08/01 05:14:34;;;;;;;;;;;;;;;15.19;100.00;100065.06;5115698;28;19992;-71
2021/08/01 05:17:00;;;;;;;;;;;;;;;15.22;100.00;100060.13;5115317;28;20348;-71
2021/08/01 05:19:26;;;;;;;;;;;;;;;15.22;100.00;100051.94;5115605;28;19924;-71
2021/08/01 05:21:52;;;;;;;;;;;;;;;15.26;100.00;100063.38;5115433;28;20260;-72
2021/08/01 05:24:19;;;;;;;;;;;;;;;15.33;100.00;100069.88;5115589;28;19927;-71
2021/08/01 05:26:45;;;;;;;;;;;;;;;15.36;100.00;100055.84;5114966;28;19932;-69
2021/08/01 05:29:12;;;;;;;;;;;;;;;15.41;100.00;100063.53;5115373;28;20333;-68
2021/08/01 05:31:39;;;;;;;;;;;;;;;15.44;100.00;100060.44;5115274;28;19931;-68
2021/08/01 05:34:06;;;;;;;;;;;;;;;15.51;100.00;100069.69;5114015;28;19953;-68
2021/08/01 05:36:32;;;;;;;;;;;;;;;15.57;100.00;100062.66;5101535;28;19924;-62
2021/08/01 05:38:58;;;;;;;;;;;;;;;15.64;100.00;100065.56;5113375;28;19932;-62
2021/08/01 05:41:25;;;;;;;;;;;;;;;15.72;100.00;100066.38;5112606;28;20395;-62
2021/08/01 05:43:52;;;;;;;;;;;;;;;15.73;100.00;100065.34;5115313;28;20371;-61
2021/08/01 05:46:18;;;;;;;;;;;;;;;15.74;100.00;100064.34;5103451;28;19931;-61
2021/08/01 05:48:46;;;;;;;;;;;;;;;15.69;100.00;100050.31;5094268;28;19981;-61
2021/08/01 05:51:12;;;;;;;;;;;;;;;15.69;100.00;100057.69;5106700;28;19924;-61
2021/08/01 05:53:39;;;;;;;;;;;;;;;15.77;100.00;100054.94;5114668;28;19966;-61
2021/08/01 05:56:09;;;;;;;;;;;;;;;15.87;100.00;100061.09;5103052;28;19951;-62
2021/08/01 05:58:35;;;;;;;;;;;;;;;15.87;100.00;100061.09;5095352;28;19924;-61
2021/08/01 06:01:06;;;;;;;;;;;;;;;15.92;100.00;100065.19;5105414;28;19924;-69
2021/08/01 06:03:32;;;;;;;;;;;;;;;15.94;100.00;100057.63;5100214;28;19924;-69
2021/08/01 06:06:08;;;;;;;;;;;;;;;16.07;100.00;100060.66;5109516;28;20404;-61
2021/08/01 06:08:34;;;;;;;;;;;;;;;16.25;100.00;100063.19;5092849;28;20453;-61
2021/08/01 06:11:00;;;;;;;;;;;;;;;16.32;100.00;100060.59;5093160;28;19928;-62
2021/08/01 06:13:27;;;;;;;;;;;;;;;16.50;100.00;100058.44;5093662;28;19950;-61
2021/08/01 06:15:53;;;;;;;;;;;;;;;16.45;100.00;100044.44;5092902;28;19992;-62
2021/08/01 06:18:19;;;;;;;;;;;;;;;16.68;100.00;100043.59;5093776;28;19977;-63
2021/08/01 06:20:46;;;;;;;;;;;;;;;16.72;100.00;100029.34;5093658;28;20377;-63
2021/08/01 06:23:13;;;;;;;;;;;;;;;16.81;100.00;100042.97;5093568;28;19924;-63
2021/08/01 06:25:39;;;;;;;;;;;;;;;16.86;100.00;100043.28;5093656;28;19985;-62
2021/08/01 06:28:06;;;;;;;;;;;;;;;17.04;100.00;100043.88;5093492;28;19932;-61
2021/08/01 06:30:32;;;;;;;;;;;;;;;17.14;100.00;100049.09;5105217;28;20359;-61
2021/08/01 06:32:59;;;;;;;;;;;;;;;17.28;100.00;100052.94;5107754;28;19931;-61
2021/08/01 06:35:25;;;;;;;;;;;;;;;17.41;100.00;100055.06;5105392;28;19932;-62
2021/08/01 06:37:51;;;;;;;;;;;;;;;17.65;100.00;100055.84;5113496;28;20363;-62
2021/08/01 06:40:19;;;;;;;;;;;;;;;17.93;100.00;100057.97;5094055;28;19981;-61
2021/08/01 06:42:46;;;;;;;;;;;;;;;17.99;100.00;100052.59;5094521;28;19954;-67
2021/08/01 06:45:12;;;;;;;;;;;;;;;17.93;100.00;100055.22;5096332;28;19931;-65
2021/08/01 06:47:38;;;;;;;;;;;;;;;17.76;100.00;100068.25;5094635;28;19973;-66
2021/08/01 06:50:05;;;;;;;;;;;;;;;17.85;100.00;100067.13;5111672;28;19924;-66
2021/08/01 06:52:31;;;;;;;;;;;;;;;17.65;100.00;100062.19;5112356;28;19923;-66
2021/08/01 06:54:57;;;;;;;;;;;;;;;17.82;100.00;100070.25;5110903;28;19928;-67
2021/08/01 06:57:25;;;;;;;;;;;;;;;17.94;100.00;100062.44;5092069;28;20331;-66
2021/08/01 06:59:51;;;;;;;;;;;;;;;18.17;100.00;100067.81;5104521;28;19981;-66
2021/08/01 07:02:18;;;;;;;;;;;;;;;18.14;100.00;100063.56;5104810;28;19963;-66
2021/08/01 07:04:44;;;;;;;;;;;;;;;17.93;100.00;100057.97;5093558;28;19924;-66
2021/08/01 07:07:10;;;;;;;;;;;;;;;18.00;100.00;100056.19;5100100;28;19971;-71
2021/08/01 07:09:40;;;;;;;;;;;;;;;18.02;100.00;100060.44;5098514;28;19928;-70
2021/08/01 07:12:07;;;;;;;;;;;;;;;18.18;100.00;100062.13;5104213;28;20391;-70
2021/08/01 07:14:35;;;;;;;;;;;;;;;18.38;100.00;100050.56;5098508;28;19943;-70
2021/08/01 07:17:01;;;;;;;;;;;;;;;18.37;100.00;100055.22;5092885;28;19970;-66
2021/08/01 07:19:27;;;;;;;;;;;;;;;18.22;100.00;100065.34;5102853;28;19993;-66
2021/08/01 07:21:54;;;;;;;;;;;;;;;18.24;100.00;100066.03;5105923;28;20883;-66
2021/08/01 07:24:20;;;;;;;;;;;;;;;18.36;100.00;100064.50;5093738;28;19990;-66
2021/08/01 07:26:47;;;;;;;;;;;;;;;18.39;100.00;100058.59;5092475;28;19977;-66
2021/08/01 07:29:13;;;;;;;;;;;;;;;18.23;100.00;100065.16;5094027;28;19963;-66
2021/08/01 07:31:41;;;;;;;;;;;;;;;18.22;100.00;100066.19;5102889;28;20403;-66
2021/08/01 07:34:07;;;;;;;;;;;;;;;18.05;100.00;100070.19;5099013;28;19924;-66
2021/08/01 07:36:33;;;;;;;;;;;;;;;18.09;100.00;100063.28;5096417;28;20392;-66
2021/08/01 07:39:00;;;;;;;;;;;;;;;18.24;100.00;100066.88;5092678;28;19993;-66
2021/08/01 07:41:26;;;;;;;;;;;;;;;18.35;100.00;100050.94;5103599;28;19980;-66
2021/08/01 07:43:52;;;;;;;;;;;;;;;18.20;100.00;100054.56;5111578;28;19928;-66
2021/08/01 07:46:19;;;;;;;;;;;;;;;18.16;100.00;100055.13;5112717;28;19924;-66
2021/08/01 07:48:47;;;;;;;;;;;;;;;18.42;100.00;100059.28;5112526;28;20331;-67
2021/08/01 07:51:13;;;;;;;;;;;;;;;18.67;100.00;100059.78;5112682;28;20436;-66
2021/08/01 07:53:39;;;;;;;;;;;;;;;19.26;100.00;100052.38;5112505;28;19935;-66
2021/08/01 07:56:06;;;;;;;;;;;;;;;19.42;100.00;100052.06;5112649;28;19930;-67
2021/08/01 07:58:32;;;;;;;;;;;;;;;19.67;100.00;100046.13;5112364;28;19924;-67
2021/08/01 08:00:58;;;;;;;;;;;;;;;19.64;100.00;100043.78;5112661;28;20374;-67
2021/08/01 08:03:25;;;;;;;;;;;;;;;19.90;100.00;100032.97;5112873;28;19923;-67
2021/08/01 08:05:52;;;;;;;;;;;;;;;20.39;100.00;100036.59;5112701;28;20071;-67
2021/08/01 08:08:19;;;;;;;;;;;;;;;20.67;100.00;100041.16;5112579;28;20083;-67
2021/08/01 08:10:45;;;;;;;;;;;;;;;20.67;100.00;100040.28;5112591;28;19985;-67
2021/08/01 08:13:11;;;;;;;;;;;;;;;20.22;100.00;100038.84;5112602;28;19927;-67
2021/08/01 08:15:37;;;;;;;;;;;;;;;19.84;100.00;100035.69;5112235;28;19928;-66
2021/08/01 08:18:04;;;;;;;;;;;;;;;19.79;100.00;100036.25;5112094;28;19928;-65
2021/08/01 08:20:31;;;;;;;;;;;;;;;19.67;100.00;100048.88;5112415;28;19923;-68
2021/08/01 08:22:58;;;;;;;;;;;;;;;19.56;100.00;100048.38;5111332;28;19928;-69
2021/08/01 08:25:25;;;;;;;;;;;;;;;19.67;100.00;100057.13;5111931;28;19923;-65
2021/08/01 08:27:52;;;;;;;;;;;;;;;19.52;100.00;100049.84;5111483;28;20348;-66
2021/08/01 08:30:19;;;;;;;;;;;;;;;19.52;100.00;100062.72;5112368;28;19977;-68
2021/08/01 08:32:45;;;;;;;;;;;;;;;19.51;100.00;100050.88;5110792;28;20329;-69
2021/08/01 08:35:12;;;;;;;;;;;;;;;19.33;100.00;100056.84;5112360;28;19924;-68
2021/08/01 08:37:45;;;;;;;;;;;;;;;19.26;100.00;100052.38;5111969;28;20379;-65
2021/08/01 08:40:14;;;;;;;;;;;;;;;19.13;100.00;100056.69;5112173;28;19924;-65
2021/08/01 08:42:40;;;;;;;;;;;;;;;19.17;100.00;100057.16;5112002;28;19924;-65
2021/08/01 08:45:06;;;;;;;;;;;;;;;19.36;100.00;100064.75;5111824;28;20018;-66
2021/08/01 08:47:36;;;;;;;;;;;;;;;19.08;100.00;100061.94;5111828;28;20028;-65
2021/08/01 08:50:03;;;;;;;;;;;;;;;18.99;100.00;100063.13;5112182;28;20375;-66
2021/08/01 08:52:31;;;;;;;;;;;;;;;19.33;100.00;100062.38;5111788;28;19924;-65
2021/08/01 08:54:59;;;;;;;;;;;;;;;19.79;100.00;100063.78;5111754;28;19924;-69
2021/08/01 08:57:29;;;;;;;;;;;;;;;19.68;100.00;100070.72;5111623;28;19923;-69
2021/08/01 09:00:00;;;;;;;;;;;;;;;19.63;100.00;100075.09;5111809;28;19973;-68
2021/08/01 09:02:27;;;;;;;;;;;;;;;19.55;100.00;100070.63;5111580;28;19977;-68
2021/08/01 09:04:53;;;;;;;;;;;;;;;19.71;100.00;100066.72;5110606;28;20468;-69
2021/08/01 09:07:19;;;;;;;;;;;;;;;19.71;100.00;100067.53;5111561;28;19923;-69
2021/08/01 09:09:46;;;;;;;;;;;;;;;19.93;100.00;100055.66;5111651;28;20440;-69
2021/08/01 09:12:12;;;;;;;;;;;;;;;20.53;100.00;100059.53;5111862;28;19931;-69
2021/08/01 09:14:40;;;;;;;;;;;;;;;20.45;100.00;100070.75;5111662;28;19977;-69
2021/08/01 09:17:06;;;;;;;;;;;;;;;20.34;100.00;100060.31;5110478;28;19978;-69
2021/08/01 09:19:35;;;;;;;;;;;;;;;20.37;100.00;100054.41;5111694;28;20345;-69
2021/08/01 09:22:15;;;;;;;;;;;;;;;20.17;100.00;100055.13;5111968;28;19931;-65
2021/08/01 09:24:42;;;;;;;;;;;;;;;20.24;100.00;100064.31;5111835;28;20001;-69
2021/08/01 09:27:08;;;;;;;;;;;;;;;20.39;100.00;100066.91;5111625;28;19966;-68
2021/08/01 09:29:48;;;;;;;;;;;;;;;20.66;100.00;100053.22;5111985;28;20383;-66
2021/08/01 09:32:16;;;;;;;;;;;;;;;20.70;100.00;100051.78;5112384;28;19974;-70
2021/08/01 09:34:45;;;;;;;;;;;;;;;20.77;100.00;100051.81;5114842;28;19966;-69
2021/08/01 09:37:12;;;;;;;;;;;;;;;20.81;100.00;100053.09;5115136;28;20411;-69
2021/08/01 09:39:39;;;;;;;;;;;;;;;20.92;100.00;100046.09;5115583;28;20432;-70
2021/08/01 09:42:05;;;;;;;;;;;;;;;21.52;100.00;100045.31;5115196;28;19924;-70
2021/08/01 09:44:31;;;;;;;;;;;;;;;21.72;100.00;100048.91;5115556;27;20066;-70
2021/08/01 09:46:58;;;;;;;;;;;;;;;22.08;100.00;100039.25;5114733;28;19981;-69
2021/08/01 09:49:28;;;;;;;;;;;;;;;22.37;100.00;100036.25;5115306;28;19984;-70
2021/08/01 09:51:56;;;;;;;;;;;;;;;22.05;100.00;100041.63;5115082;28;19930;-70
2021/08/01 09:54:23;;;;;;;;;;;;;;;22.25;100.00;100038.81;5114767;28;19923;-66
2021/08/01 09:56:53;;;;;;;;;;;;;;;22.39;100.00;100045.16;5114636;28;19993;-70
2021/08/01 09:59:20;;;;;;;;;;;;;;;22.33;100.00;100037.72;5114845;28;19924;-70
2021/08/01 10:01:49;;;;;;;;;;;;;;;21.98;100.00;100038.03;5114769;28;20391;-69
2021/08/01 10:04:21;;;;;;;;;;;;;;;21.82;100.00;100033.81;5114757;28;19924;-69
2021/08/01 10:07:00;;;;;;;;;;;;;;;21.79;100.00;100037.84;5114333;28;19932;-66
2021/08/01 10:09:27;;;;;;;;;;;;;;;21.31;100.00;100038.94;5114595;28;19974;-66
2021/08/01 10:11:54;;;;;;;;;;;;;;;21.02;100.00;100041.03;5113065;28;19928;-66
2021/08/01 10:14:20;;;;;;;;;;;;;;;21.06;100.00;100041.47;5114678;28;19946;-66
2021/08/01 10:16:46;;;;;;;;;;;;;;;20.82;100.00;100046.53;5114097;28;20395;-66
2021/08/01 10:19:14;;;;;;;;;;;;;;;20.87;100.00;100035.72;5114667;28;19953;-66
2021/08/01 10:21:43;;;;;;;;;;;;;;;20.96;100.00;100035.50;5114329;28;19924;-66
2021/08/01 10:24:12;;;;;;;;;;;;;;;21.05;100.00;100042.53;5114434;28;19977;-66
2021/08/01 10:26:41;;;;;;;;;;;;;;;21.15;100.00;100044.88;5113947;28;20386;-66
2021/08/01 10:29:08;;;;;;;;;;;;;;;21.10;100.00;100047.41;5114405;28;20298;-66
2021/08/01 10:31:36;;;;;;;;;;;;;;;20.81;100.00;100044.81;5113732;28;19927;-66
2021/08/01 10:34:08;;;;;;;;;;;;;;;20.63;100.00;100045.38;5114277;28;20189;-66
2021/08/01 10:36:35;;;;;;;;;;;;;;;20.73;100.00;100042.25;5113958;28;19924;-66
2021/08/01 10:39:05;;;;;;;;;;;;;;;20.77;100.00;100035.25;5113854;28;19924;-66
2021/08/01 10:41:34;;;;;;;;;;;;;;;20.59;100.00;100027.56;5114740;28;19930;-66
2021/08/01 10:44:03;;;;;;;;;;;;;;;21.00;100.00;100034.03;5113587;28;19927;-66
2021/08/01 10:46:29;;;;;;;;;;;;;;;21.11;100.00;100036.19;5112985;28;20387;-66
2021/08/01 10:48:58;;;;;;;;;;;;;;;21.21;100.00;100028.31;5113361;28;19927;-66
2021/08/01 10:51:27;;;;;;;;;;;;;;;21.59;100.00;100039.81;5114000;28;19963;-66
2021/08/01 10:53:53;;;;;;;;;;;;;;;21.63;100.00;100032.78;5113777;28;19981;-66
2021/08/01 10:56:37;;;;;;;;;;;;;;;22.00;100.00;100030.38;5113524;28;19923;-66
2021/08/01 10:59:05;;;;;;;;;;;;;;;22.65;100.00;100026.72;5113795;28;20404;-67
2021/08/01 11:01:32;;;;;;;;;;;;;;;23.12;100.00;100016.22;5112385;28;19951;-67
2021/08/01 11:04:18;;;;;;;;;;;;;;;23.03;100.00;100020.31;5113667;28;19978;-67
2021/08/01 11:06:44;;;;;;;;;;;;;;;22.62;100.00;100027.19;5113375;28;19931;-67
2021/08/01 11:09:12;;;;;;;;;;;;;;;22.22;100.00;100026.28;5113312;28;19924;-70
2021/08/01 11:11:38;;;;;;;;;;;;;;;21.76;100.00;100029.16;5113440;28;19923;-70
2021/08/01 11:14:06;;;;;;;;;;;;;;;21.56;100.00;100027.28;5113421;28;20344;-70
2021/08/01 11:16:47;;;;;;;;;;;;;;;21.27;100.00;100029.38;5113271;28;19966;-70
2021/08/01 11:19:33;;;;;;;;;;;;;;;21.12;100.00;100024.06;5113302;28;19974;-70
2021/08/01 11:21:59;;;;;;;;;;;;;;;20.78;100.00;100025.94;5113348;28;20405;-73
2021/08/01 11:24:25;;;;;;;;;;;;;;;20.71;100.00;100028.69;5113081;28;19977;-70
2021/08/01 11:27:09;;;;;;;;;;;;;;;21.05;100.00;100034.25;5112997;28;19955;-70
2021/08/01 11:29:50;;;;;;;;;;;;;;;21.29;100.00;100030.03;5113165;28;19924;-70
2021/08/01 11:32:17;;;;;;;;;;;;;;;21.56;100.00;100025.34;5111403;28;19924;-70
2021/08/01 11:34:45;;;;;;;;;;;;;;;21.62;100.00;100025.56;5112778;28;19977;-70
2021/08/01 11:37:18;;;;;;;;;;;;;;;21.63;100.00;100030.88;5112838;28;19923;-66
2021/08/01 11:39:51;;;;;;;;;;;;;;;21.50;100.00;100025.31;5111862;28;19930;-66
2021/08/01 11:42:21;;;;;;;;;;;;;;;21.37;100.00;100020.69;5112862;28;19924;-66
2021/08/01 11:44:56;;;;;;;;;;;;;;;21.48;100.00;100022.78;5112529;28;19928;-66
2021/08/01 11:47:23;;;;;;;;;;;;;;;21.84;100.00;100021.47;5112534;28;19937;-66
2021/08/01 11:49:50;;;;;;;;;;;;;;;22.13;100.00;100023.94;5112172;28;19931;-66
2021/08/01 11:52:33;;;;;;;;;;;;;;;22.36;100.00;100017.97;5092521;28;19928;-66
2021/08/01 11:55:00;;;;;;;;;;;;;;;22.37;100.00;100014.97;5097008;28;19928;-66
2021/08/01 11:57:28;;;;;;;;;;;;;;;22.50;100.00;100004.91;5112052;28;19966;-65
2021/08/01 11:59:54;;;;;;;;;;;;;;;22.75;100.00;100002.19;5111894;27;19924;-66
2021/08/01 12:02:21;;;;;;;;;;;;;;;22.56;100.00;100002.09;5102881;28;19928;-66
2021/08/01 12:04:53;;;;;;;;;;;;;;;22.44;100.00;100003.88;5091508;28;19981;-65
2021/08/01 12:07:19;;;;;;;;;;;;;;;22.45;100.00;100011.09;5100443;28;19939;-66
2021/08/01 12:09:46;;;;;;;;;;;;;;;22.37;100.00;100003.91;5112238;28;20379;-66
2021/08/01 12:12:12;;;;;;;;;;;;;;;22.05;100.00;100012.09;5110769;28;20014;-68
2021/08/01 12:14:40;;;;;;;;;;;;;;;21.92;100.00;100022.34;5095873;28;20337;-70
2021/08/01 12:17:07;;;;;;;;;;;;;;;21.86;100.00;100019.38;5097752;28;19924;-69
2021/08/01 12:19:35;;;;;;;;;;;;;;;21.98;100.00;100019.56;5112229;28;19924;-69
2021/08/01 12:22:07;;;;;;;;;;;;;;;22.45;100.00;100008.34;5107557;28;19985;-65
2021/08/01 12:24:34;;;;;;;;;;;;;;;23.12;100.00;100007.91;5092781;28;19963;-70
2021/08/01 12:27:02;;;;;;;;;;;;;;;24.01;100.00;100006.91;5095167;28;20044;-70
2021/08/01 12:29:33;;;;;;;;;;;;;;;24.25;100.00;100007.88;5110157;28;19928;-66
2021/08/01 12:32:00;;;;;;;;;;;;;;;24.20;100.00;100003.03;5111581;28;20435;-70
2021/08/01 12:34:26;;;;;;;;;;;;;;;24.58;100.00;99996.34;5112124;28;19924;-65